createdAt,value
2019-02-08T00:01:19.956Z,2.80
2019-02-08T00:03:49.139Z,2.90
2019-02-08T00:06:18.303Z,2.90
2019-02-08T00:08:47.492Z,2.90
2019-02-08T00:11:16.952Z,2.90
2019-02-08T00:13:46.156Z,2.90
2019-02-08T00:16:15.321Z,2.90
2019-02-08T00:18:44.872Z,2.90
2019-02-08T00:21:14.349Z,3.00
2019-02-08T00:23:43.519Z,3.10
2019-02-08T00:26:13.073Z,3.10
2019-02-08T00:28:42.582Z,3.20
2019-02-08T00:31:11.765Z,3.30
2019-02-08T00:33:40.946Z,3.30
2019-02-08T00:36:10.125Z,3.30
2019-02-08T00:38:39.307Z,3.20
2019-02-08T00:41:08.479Z,3.20
2019-02-08T00:43:37.664Z,3.00
2019-02-08T00:46:09.105Z,2.90
2019-02-08T00:48:38.271Z,2.90
2019-02-08T00:51:07.724Z,2.80
2019-02-08T00:53:36.902Z,2.80
2019-02-08T00:56:06.244Z,2.80
2019-02-08T00:58:35.429Z,2.80
2019-02-08T01:01:04.876Z,2.90
2019-02-08T01:03:34.071Z,3.00
2019-02-08T01:06:04.155Z,3.00
2019-02-08T01:08:33.338Z,3.10
2019-02-08T01:11:02.753Z,3.20
2019-02-08T01:13:32.127Z,3.30
2019-02-08T01:16:01.296Z,3.40
2019-02-08T01:18:30.489Z,3.40
2019-02-08T01:20:59.656Z,3.50
2019-02-08T01:23:28.840Z,3.50
2019-02-08T01:25:58.028Z,3.60
2019-02-08T01:28:27.195Z,3.60
2019-02-08T01:30:56.379Z,3.60
2019-02-08T01:33:25.552Z,3.70
2019-02-08T01:35:54.723Z,3.80
2019-02-08T01:38:23.915Z,3.90
2019-02-08T01:40:53.084Z,3.90
2019-02-08T01:43:22.274Z,4.10
2019-02-08T01:45:51.961Z,4.10
2019-02-08T01:48:21.136Z,4.20
2019-02-08T01:50:50.316Z,4.20
2019-02-08T01:53:19.488Z,4.30
2019-02-08T01:55:48.675Z,4.40
2019-02-08T01:58:18.047Z,4.50
2019-02-08T02:00:48.329Z,4.50
2019-02-08T02:03:17.591Z,4.60
2019-02-08T02:05:47.087Z,4.60
2019-02-08T02:08:16.256Z,4.60
2019-02-08T02:10:46.073Z,4.50
2019-02-08T02:13:15.234Z,4.40
2019-02-08T02:15:44.487Z,4.40
2019-02-08T02:18:13.823Z,4.40
2019-02-08T02:20:44.152Z,4.50
2019-02-08T02:23:15.275Z,4.50
2019-02-08T02:25:45.002Z,4.60
2019-02-08T02:28:15.318Z,4.60
2019-02-08T02:30:44.484Z,4.50
2019-02-08T02:33:14.314Z,4.50
2019-02-08T02:35:43.769Z,4.50
2019-02-08T02:38:17.101Z,4.40
2019-02-08T02:40:46.303Z,4.50
2019-02-08T02:43:15.612Z,4.50
2019-02-08T02:45:44.913Z,4.60
2019-02-08T02:48:14.120Z,4.60
2019-02-08T02:50:43.353Z,4.60
2019-02-08T02:53:12.575Z,4.70
2019-02-08T02:55:41.796Z,4.70
2019-02-08T02:58:11.097Z,4.80
2019-02-08T03:00:43.316Z,4.80
2019-02-08T03:03:13.201Z,4.80
2019-02-08T03:05:42.575Z,4.80
2019-02-08T03:08:14.026Z,4.90
2019-02-08T03:10:43.339Z,4.90
2019-02-08T03:13:12.979Z,4.90
2019-02-08T03:15:42.219Z,4.90
2019-02-08T03:18:11.486Z,4.90
2019-02-08T03:20:40.776Z,4.90
2019-02-08T03:23:09.975Z,4.90
2019-02-08T03:25:39.281Z,4.90
2019-02-08T03:28:08.479Z,4.90
2019-02-08T03:30:45.279Z,4.90
2019-02-08T03:33:14.541Z,5.00
2019-02-08T03:35:43.946Z,5.00
2019-02-08T03:38:13.137Z,5.00
2019-02-08T03:40:42.356Z,5.00
2019-02-08T03:43:11.841Z,5.00
2019-02-08T03:45:42.930Z,5.00
2019-02-08T03:48:12.463Z,5.00
2019-02-08T03:50:41.858Z,5.00
2019-02-08T03:53:11.331Z,5.00
2019-02-08T03:55:40.626Z,5.00
2019-02-08T03:58:10.364Z,5.00
2019-02-08T04:00:41.502Z,5.00
2019-02-08T04:03:10.727Z,5.00
2019-02-08T04:05:40.000Z,5.10
2019-02-08T04:08:09.235Z,5.10
2019-02-08T04:10:38.541Z,5.10
2019-02-08T04:13:07.749Z,5.10
2019-02-08T04:15:37.045Z,5.20
2019-02-08T04:18:06.438Z,5.20
2019-02-08T04:20:35.641Z,5.20
2019-02-08T04:23:04.919Z,5.20
2019-02-08T04:25:34.139Z,5.10
2019-02-08T04:28:03.344Z,5.10
2019-02-08T04:30:32.849Z,5.10
2019-02-08T04:33:02.715Z,5.10
2019-02-08T04:35:32.210Z,5.00
2019-02-08T04:38:01.416Z,5.00
2019-02-08T04:40:30.648Z,5.00
2019-02-08T04:42:59.873Z,5.00
2019-02-08T04:45:29.072Z,5.10
2019-02-08T04:47:59.870Z,5.10
2019-02-08T04:50:30.687Z,5.20
2019-02-08T04:52:59.923Z,5.20
2019-02-08T04:55:29.115Z,5.30
2019-02-08T04:57:58.341Z,5.30
2019-02-08T05:00:29.910Z,5.40
2019-02-08T05:02:59.407Z,5.40
2019-02-08T05:05:28.879Z,5.40
2019-02-08T05:07:58.340Z,5.40
2019-02-08T05:10:32.263Z,5.50
2019-02-08T05:13:01.654Z,5.50
2019-02-08T05:15:30.925Z,5.50
2019-02-08T05:18:00.255Z,5.50
2019-02-08T05:20:31.184Z,5.60
2019-02-08T05:23:01.359Z,5.60
2019-02-08T05:25:30.632Z,5.60
2019-02-08T05:27:59.866Z,5.60
2019-02-08T05:30:31.768Z,5.50
2019-02-08T05:33:01.060Z,5.50
2019-02-08T05:35:30.260Z,5.40
2019-02-08T05:37:59.485Z,5.40
2019-02-08T05:40:28.769Z,5.40
2019-02-08T05:42:57.984Z,5.40
2019-02-08T05:45:27.746Z,5.40
2019-02-08T05:47:56.971Z,5.40
2019-02-08T05:50:28.592Z,5.40
2019-02-08T05:52:57.884Z,5.40
2019-02-08T05:55:31.633Z,5.40
2019-02-08T05:58:00.851Z,5.40
2019-02-08T06:00:43.106Z,5.40
2019-02-08T06:03:12.312Z,5.30
2019-02-08T06:05:41.884Z,5.30
2019-02-08T06:08:11.082Z,5.30
2019-02-08T06:10:40.321Z,5.40
2019-02-08T06:13:09.883Z,5.40
2019-02-08T06:15:39.629Z,5.40
2019-02-08T06:18:10.395Z,5.50
2019-02-08T06:20:39.939Z,5.50
2019-02-08T06:23:09.347Z,5.50
2019-02-08T06:25:38.623Z,5.50
2019-02-08T06:28:07.918Z,5.60
2019-02-08T06:30:37.331Z,5.50
2019-02-08T06:33:06.648Z,5.50
2019-02-08T06:35:35.952Z,5.50
2019-02-08T06:38:06.201Z,5.50
2019-02-08T06:40:38.525Z,5.50
2019-02-08T06:43:08.193Z,5.50
2019-02-08T06:45:37.762Z,5.50
2019-02-08T06:48:08.732Z,5.50
2019-02-08T06:50:38.007Z,5.50
2019-02-08T06:53:07.300Z,5.50
2019-02-08T06:55:36.904Z,5.60
2019-02-08T06:58:09.403Z,5.60
2019-02-08T07:00:46.092Z,5.70
2019-02-08T07:03:22.917Z,5.80
2019-02-08T07:06:11.961Z,5.90
2019-02-08T07:08:48.584Z,5.90
2019-02-08T07:11:31.493Z,6.00
2019-02-08T07:14:11.378Z,6.10
2019-02-08T07:17:00.527Z,6.10
2019-02-08T07:19:35.628Z,6.20
2019-02-08T07:22:12.672Z,6.20
2019-02-08T07:24:43.545Z,6.30
2019-02-08T07:27:17.389Z,6.30
2019-02-08T07:29:51.258Z,6.40
2019-02-08T07:32:27.944Z,6.40
2019-02-08T07:35:16.843Z,6.40
2019-02-08T07:38:00.281Z,6.40
2019-02-08T07:40:43.380Z,6.50
2019-02-08T07:43:26.924Z,6.50
2019-02-08T07:46:00.033Z,6.40
2019-02-08T07:48:43.463Z,6.40
2019-02-08T07:51:32.183Z,6.40
2019-02-08T07:54:08.868Z,6.30
2019-02-08T07:56:56.510Z,6.30
2019-02-08T07:59:28.237Z,6.30
2019-02-08T08:01:59.818Z,6.30
2019-02-08T08:04:46.273Z,6.20
2019-02-08T08:07:18.898Z,6.20
2019-02-08T08:09:56.157Z,6.20
2019-02-08T08:12:42.277Z,6.20
2019-02-08T08:15:16.567Z,6.30
2019-02-08T08:17:50.291Z,6.30
2019-02-08T08:20:23.770Z,6.30
2019-02-08T08:23:11.401Z,6.30
2019-02-08T08:25:56.612Z,6.40
2019-02-08T08:28:27.756Z,6.50
2019-02-08T08:31:02.636Z,6.60
2019-02-08T08:33:37.614Z,6.60
2019-02-08T08:36:22.173Z,6.60
2019-02-08T08:39:00.517Z,6.70
2019-02-08T08:41:49.647Z,6.70
2019-02-08T08:44:41.557Z,6.70
2019-02-08T08:47:28.543Z,6.80
2019-02-08T08:50:23.667Z,6.80
2019-02-08T08:53:04.208Z,6.90
2019-02-08T08:55:48.831Z,6.80
2019-02-08T08:58:29.660Z,6.90
2019-02-08T09:01:14.284Z,6.90
2019-02-08T09:03:50.375Z,6.90
2019-02-08T09:06:42.133Z,7.00
2019-02-08T09:09:17.331Z,7.00
2019-02-08T09:12:04.808Z,7.10
2019-02-08T09:14:39.717Z,7.10
2019-02-08T09:17:30.017Z,7.10
2019-02-08T09:20:14.326Z,7.20
2019-02-08T09:23:01.640Z,7.20
2019-02-08T09:25:34.423Z,7.30
2019-02-08T09:28:15.895Z,7.40
2019-02-08T09:31:03.431Z,7.40
2019-02-08T09:33:38.720Z,7.40
2019-02-08T09:36:47.470Z,7.40
2019-02-08T09:39:23.067Z,7.40
2019-02-08T09:42:21.048Z,7.40
2019-02-08T09:45:12.724Z,7.40
2019-02-08T09:47:47.863Z,7.40
2019-02-08T09:50:40.927Z,7.50
2019-02-08T09:53:15.992Z,7.50
2019-02-08T09:56:17.499Z,7.60
2019-02-08T09:59:18.531Z,7.60
2019-02-08T10:02:13.615Z,7.70
2019-02-08T10:04:51.818Z,7.70
2019-02-08T10:07:48.352Z,7.80
2019-02-08T10:10:35.780Z,7.70
2019-02-08T10:13:10.948Z,7.80
2019-02-08T10:16:09.253Z,7.90
2019-02-08T10:18:44.200Z,8.00
2019-02-08T10:21:36.494Z,8.00
2019-02-08T10:24:41.963Z,8.10
2019-02-08T10:27:33.679Z,8.20
2019-02-08T10:30:22.514Z,8.20
2019-02-08T10:33:03.494Z,8.20
2019-02-08T10:36:09.052Z,8.20
2019-02-08T10:38:43.995Z,8.20
2019-02-08T10:41:40.755Z,8.10
2019-02-08T10:44:31.151Z,8.10
2019-02-08T10:47:21.640Z,8.10
2019-02-08T10:50:19.181Z,8.10
2019-02-08T10:53:00.385Z,8.10
2019-02-08T10:55:50.608Z,8.20
2019-02-08T10:58:56.186Z,8.20
2019-02-08T11:01:51.127Z,8.20
2019-02-08T11:04:46.031Z,8.30
2019-02-08T11:07:34.772Z,8.20
2019-02-08T11:10:23.952Z,8.30
2019-02-08T11:13:12.711Z,8.30
2019-02-08T11:15:58.002Z,8.40
2019-02-08T11:18:39.211Z,8.40
2019-02-08T11:21:08.491Z,8.50
2019-02-08T11:23:37.707Z,8.60
2019-02-08T11:26:07.821Z,8.70
2019-02-08T11:28:38.778Z,8.90
2019-02-08T11:31:07.988Z,9.10
2019-02-08T11:33:37.229Z,9.10
2019-02-08T11:36:06.602Z,9.10
2019-02-08T11:38:35.872Z,9.10
2019-02-08T11:41:05.817Z,9.10
2019-02-08T11:43:35.101Z,9.20
2019-02-08T11:46:05.220Z,9.30
2019-02-08T11:48:34.594Z,9.30
2019-02-08T11:51:03.857Z,9.30
2019-02-08T11:53:33.058Z,9.30
2019-02-08T11:56:02.925Z,9.30
2019-02-08T11:58:32.244Z,9.30
2019-02-08T12:01:01.571Z,9.30
2019-02-08T12:03:30.785Z,9.40
2019-02-08T12:06:00.208Z,9.40
2019-02-08T12:08:29.478Z,9.40
2019-02-08T12:10:58.784Z,9.50
2019-02-08T12:13:28.055Z,9.50
2019-02-08T12:15:57.713Z,9.50
2019-02-08T12:18:26.929Z,9.50
2019-02-08T12:20:56.151Z,9.50
2019-02-08T12:23:25.408Z,9.40
2019-02-08T12:25:54.651Z,9.40
2019-02-08T12:28:25.251Z,9.30
2019-02-08T12:30:54.604Z,9.30
2019-02-08T12:33:24.177Z,9.30
2019-02-08T12:35:54.167Z,9.20
2019-02-08T12:38:23.371Z,9.20
2019-02-08T12:40:52.614Z,9.20
2019-02-08T12:43:21.940Z,9.10
2019-02-08T12:45:51.179Z,9.10
2019-02-08T12:48:20.637Z,9.10
2019-02-08T12:50:50.265Z,9.10
2019-02-08T12:53:19.813Z,9.10
2019-02-08T12:55:49.317Z,9.00
2019-02-08T12:58:18.520Z,9.10
2019-02-08T13:00:47.751Z,9.10
2019-02-08T13:03:16.979Z,9.10
2019-02-08T13:05:46.263Z,9.20
2019-02-08T13:08:18.955Z,9.30
2019-02-08T13:10:48.253Z,9.50
2019-02-08T13:13:17.453Z,9.60
2019-02-08T13:15:46.945Z,9.70
2019-02-08T13:18:16.170Z,9.80
2019-02-08T13:20:45.367Z,9.80
2019-02-08T13:23:14.623Z,9.80
2019-02-08T13:25:44.186Z,9.90
2019-02-08T13:28:13.475Z,10.00
2019-02-08T13:30:42.748Z,10.00
2019-02-08T13:33:12.218Z,9.90
2019-02-08T13:35:41.459Z,9.90
2019-02-08T13:38:11.077Z,9.90
2019-02-08T13:40:40.297Z,9.80
2019-02-08T13:43:09.541Z,9.80
2019-02-08T13:45:38.753Z,9.70
2019-02-08T13:48:08.096Z,9.60
2019-02-08T13:50:37.380Z,9.60
2019-02-08T13:53:06.592Z,9.60
2019-02-08T13:55:35.791Z,9.50
2019-02-08T13:58:06.276Z,9.50
2019-02-08T14:00:40.104Z,9.50
2019-02-08T14:03:09.472Z,9.40
2019-02-08T14:05:39.763Z,9.40
2019-02-08T14:08:10.047Z,9.40
2019-02-08T14:10:39.256Z,9.30
2019-02-08T14:13:08.464Z,9.30
2019-02-08T14:15:37.747Z,9.30
2019-02-08T14:18:07.069Z,9.30
2019-02-08T14:20:36.323Z,9.30
2019-02-08T14:23:05.627Z,9.30
2019-02-08T14:25:35.068Z,9.30
2019-02-08T14:33:50.423Z,9.20
2019-02-08T14:36:19.634Z,9.10
2019-02-08T14:38:48.889Z,9.10
2019-02-08T14:41:18.115Z,9.10
2019-02-08T14:43:47.332Z,9.20
2019-02-08T14:46:16.792Z,9.20
2019-02-08T14:48:46.001Z,9.30
2019-02-08T14:51:15.229Z,9.30
2019-02-08T14:53:44.430Z,9.30
2019-02-08T14:56:13.669Z,9.30
2019-02-08T14:58:45.639Z,9.40
2019-02-08T15:01:17.043Z,9.40
2019-02-08T15:03:46.615Z,9.40
2019-02-08T15:06:15.837Z,9.40
2019-02-08T15:08:45.039Z,9.40
2019-02-08T15:11:14.269Z,9.50
2019-02-08T15:13:46.415Z,9.50
2019-02-08T15:16:15.820Z,9.50
2019-02-08T15:18:45.096Z,9.60
2019-02-08T15:21:14.351Z,9.60
2019-02-08T15:23:43.582Z,9.60
2019-02-08T15:26:12.803Z,9.60
2019-02-08T15:28:42.008Z,9.60
2019-02-08T15:31:11.253Z,9.60
2019-02-08T15:33:40.523Z,9.70
2019-02-08T15:36:09.753Z,9.60
2019-02-08T15:38:39.275Z,9.60
2019-02-08T15:41:08.534Z,9.60
2019-02-08T15:43:37.785Z,9.60
2019-02-08T15:46:07.172Z,9.70
2019-02-08T15:48:36.913Z,9.70
2019-02-08T15:51:06.550Z,9.70
2019-02-08T15:53:35.852Z,9.70
2019-02-08T15:56:11.435Z,9.70
2019-02-08T15:58:40.969Z,9.70
2019-02-08T16:01:10.704Z,9.70
2019-02-08T16:03:39.920Z,9.70
2019-02-08T16:06:09.289Z,9.80
2019-02-08T16:08:41.245Z,9.80
2019-02-08T16:11:10.509Z,9.80
2019-02-08T16:13:39.745Z,9.80
2019-02-08T16:16:09.186Z,9.80
2019-02-08T16:18:38.411Z,9.80
2019-02-08T16:21:07.702Z,9.80
2019-02-08T16:23:37.105Z,9.80
2019-02-08T16:26:06.331Z,9.70
2019-02-08T16:28:38.253Z,9.70
2019-02-08T16:31:08.439Z,9.70
2019-02-08T16:33:38.271Z,9.70
2019-02-08T16:36:07.481Z,9.60
2019-02-08T16:38:36.719Z,9.60
2019-02-08T16:41:08.950Z,9.60
2019-02-08T16:43:38.167Z,9.60
2019-02-08T16:46:07.384Z,9.60
2019-02-08T16:48:36.588Z,9.60
2019-02-08T16:51:05.905Z,9.60
2019-02-08T16:53:35.104Z,9.50
2019-02-08T16:56:05.033Z,9.60
2019-02-08T16:58:34.307Z,9.60
2019-02-08T17:01:03.809Z,9.60
2019-02-08T17:03:33.041Z,9.50
2019-02-08T17:06:02.339Z,9.40
2019-02-08T17:08:31.583Z,9.40
2019-02-08T17:11:00.883Z,9.30
2019-02-08T17:13:31.798Z,9.30
2019-02-08T17:16:01.039Z,9.20
2019-02-08T17:18:30.501Z,9.20
2019-02-08T17:20:59.893Z,9.20
2019-02-08T17:23:29.142Z,9.20
2019-02-08T17:25:58.349Z,9.10
2019-02-08T17:28:27.578Z,9.10
2019-02-08T17:30:56.789Z,9.10
2019-02-08T17:33:26.071Z,9.10
2019-02-08T17:35:55.278Z,9.10
2019-02-08T17:38:24.516Z,9.10
2019-02-08T17:40:53.811Z,9.10
2019-02-08T17:43:23.011Z,9.10
2019-02-08T17:45:54.181Z,9.10
2019-02-08T17:48:23.860Z,9.10
2019-02-08T17:50:53.101Z,9.10
2019-02-08T17:53:22.469Z,9.10
2019-02-08T17:55:51.783Z,9.10
2019-02-08T17:58:21.122Z,9.20
2019-02-08T18:00:52.440Z,9.10
2019-02-08T18:03:21.721Z,9.10
2019-02-08T18:05:53.000Z,9.10
2019-02-08T18:08:22.586Z,9.10
2019-02-08T18:10:51.803Z,9.10
2019-02-08T18:13:21.091Z,9.10
2019-02-08T18:15:50.330Z,9.10
2019-02-08T18:18:21.516Z,9.10
2019-02-08T18:20:56.391Z,9.10
2019-02-08T18:23:28.634Z,9.10
2019-02-08T18:25:57.916Z,9.00
2019-02-08T18:28:27.144Z,9.00
2019-02-08T18:30:56.376Z,9.00
2019-02-08T18:33:25.629Z,9.00
2019-02-08T18:35:55.230Z,9.00
2019-02-08T18:38:24.536Z,9.10
2019-02-08T18:40:53.758Z,9.10
2019-02-08T18:43:23.020Z,9.10
2019-02-08T18:45:52.856Z,9.10
2019-02-08T18:48:22.547Z,9.10
2019-02-08T18:50:53.724Z,9.20
2019-02-08T18:53:22.933Z,9.20
2019-02-08T18:55:52.236Z,9.20
2019-02-08T18:58:21.435Z,9.20
2019-02-08T19:00:52.699Z,9.20
2019-02-08T19:03:23.284Z,9.20
2019-02-08T19:05:52.515Z,9.20
2019-02-08T19:08:21.752Z,9.20
2019-02-08T19:10:51.049Z,9.10
2019-02-08T19:13:20.324Z,9.10
2019-02-08T19:15:49.626Z,9.10
2019-02-08T19:18:19.213Z,9.10
2019-02-08T19:20:52.012Z,9.00
2019-02-08T19:23:21.239Z,9.00
2019-02-08T19:25:50.457Z,8.90
2019-02-08T19:28:26.298Z,8.90
2019-02-08T19:30:53.641Z,8.90
2019-02-08T19:33:22.865Z,8.90
2019-02-08T19:35:52.087Z,8.90
2019-02-08T19:38:21.339Z,8.90
2019-02-08T19:40:50.558Z,8.90
2019-02-08T19:43:20.058Z,8.90
2019-02-08T19:45:49.324Z,8.90
2019-02-08T19:48:18.523Z,8.90
2019-02-08T19:50:48.290Z,8.90
2019-02-08T19:53:17.483Z,8.90
2019-02-08T19:55:46.748Z,9.00
2019-02-08T19:58:15.945Z,8.90
2019-02-08T20:00:45.348Z,8.90
2019-02-08T20:03:14.596Z,8.90
2019-02-08T20:05:44.012Z,8.90
2019-02-08T20:08:14.248Z,8.90
2019-02-08T20:10:48.948Z,8.90
2019-02-08T20:13:18.158Z,8.90
2019-02-08T20:15:47.411Z,8.90
2019-02-08T20:18:17.003Z,8.80
2019-02-08T20:20:46.218Z,8.80
2019-02-08T20:23:15.465Z,8.80
2019-02-08T20:25:46.309Z,8.80
2019-02-08T20:28:16.844Z,8.70
2019-02-08T20:30:46.067Z,8.70
2019-02-08T20:33:15.316Z,8.70
2019-02-08T20:35:45.892Z,8.70
2019-02-08T20:38:15.204Z,8.60
2019-02-08T20:40:46.987Z,8.60
2019-02-08T20:43:16.219Z,8.60
2019-02-08T20:45:45.462Z,8.60
2019-02-08T20:48:17.276Z,8.60
2019-02-08T20:50:46.805Z,8.60
2019-02-08T20:53:17.510Z,8.60
2019-02-08T20:55:46.732Z,8.60
2019-02-08T20:58:16.107Z,8.60
2019-02-08T21:00:48.340Z,8.60
2019-02-08T21:03:19.639Z,8.60
2019-02-08T21:05:49.105Z,8.50
2019-02-08T21:08:18.525Z,8.50
2019-02-08T21:10:48.039Z,8.50
2019-02-08T21:13:20.175Z,8.50
2019-02-08T21:15:49.376Z,8.50
2019-02-08T21:18:18.607Z,8.50
2019-02-08T21:20:48.228Z,8.40
2019-02-08T21:23:17.507Z,8.40
2019-02-08T21:25:52.117Z,8.40
2019-02-08T21:28:18.189Z,8.40
2019-02-08T21:30:48.710Z,8.40
2019-02-08T21:33:20.303Z,8.40
2019-02-08T21:35:49.673Z,8.30
2019-02-08T21:38:19.059Z,8.40
2019-02-08T21:40:48.296Z,8.30
2019-02-08T21:43:17.598Z,8.30
2019-02-08T21:45:47.092Z,8.30
2019-02-08T21:48:16.298Z,8.20
2019-02-08T21:50:48.494Z,8.20
2019-02-08T21:53:17.718Z,8.10
2019-02-08T21:55:46.923Z,8.10
2019-02-08T21:58:16.155Z,8.10
2019-02-08T22:00:45.528Z,8.20
2019-02-08T22:03:15.125Z,8.20
2019-02-08T22:05:47.796Z,8.30
2019-02-08T22:08:18.402Z,8.30
2019-02-08T22:10:47.928Z,8.30
2019-02-08T22:13:17.163Z,8.30
2019-02-08T22:15:47.061Z,8.30
2019-02-08T22:18:16.299Z,8.30
2019-02-08T22:20:45.511Z,8.40
2019-02-08T22:23:14.762Z,8.30
2019-02-08T22:25:45.383Z,8.40
2019-02-08T22:28:14.608Z,8.30
2019-02-08T22:30:43.879Z,8.40
2019-02-08T22:33:15.843Z,8.40
2019-02-08T22:35:45.042Z,8.40
2019-02-08T22:38:14.341Z,8.40
2019-02-08T22:40:43.550Z,8.50
2019-02-08T22:43:12.870Z,8.50
2019-02-08T22:45:43.390Z,8.50
2019-02-08T22:48:12.596Z,8.50
2019-02-08T22:50:41.816Z,8.50
2019-02-08T22:53:11.634Z,8.40
2019-02-08T22:55:40.836Z,8.40
2019-02-08T22:58:10.154Z,8.40
2019-02-08T23:00:44.163Z,8.40
2019-02-08T23:03:16.156Z,8.40
2019-02-08T23:05:46.212Z,8.40
2019-02-08T23:08:16.173Z,8.30
2019-02-08T23:10:45.474Z,8.30
2019-02-08T23:13:17.576Z,8.30
2019-02-08T23:15:46.801Z,8.30
2019-02-08T23:18:16.074Z,8.20
2019-02-08T23:20:45.298Z,8.20
2019-02-08T23:23:14.500Z,8.20
2019-02-08T23:25:43.720Z,8.20
2019-02-08T23:28:12.938Z,8.30
2019-02-08T23:30:42.244Z,8.30
2019-02-08T23:33:11.627Z,8.30
2019-02-08T23:35:43.077Z,8.30
2019-02-08T23:38:11.865Z,8.20
2019-02-08T23:40:41.086Z,8.20
2019-02-08T23:43:10.464Z,8.20
2019-02-08T23:45:39.687Z,8.20
2019-02-08T23:48:08.959Z,8.30
2019-02-08T23:50:38.186Z,8.30
2019-02-08T23:53:07.937Z,8.30
2019-02-08T23:55:37.251Z,8.30
2019-02-08T23:58:06.524Z,8.30
